createdAt,value
2023-01-21T00:01:27.153Z,11.90
2023-01-21T00:03:54.743Z,12.30
2023-01-21T00:06:22.313Z,11.47
2023-01-21T00:08:49.849Z,13.50
2023-01-21T00:11:17.524Z,14.70
2023-01-21T00:13:45.721Z,12.47
2023-01-21T00:16:14.062Z,15.23
2023-01-21T00:18:42.344Z,23.20
2023-01-21T00:21:10.262Z,12.47
2023-01-21T00:23:37.842Z,14.67
2023-01-21T00:26:08.545Z,9.77
2023-01-21T00:28:37.776Z,7.83
2023-01-21T00:31:07.947Z,10.00
2023-01-21T00:33:37.224Z,10.47
2023-01-21T00:36:09.722Z,11.97
2023-01-21T00:38:40.704Z,14.57
2023-01-21T00:41:11.918Z,15.80
2023-01-21T00:43:40.515Z,20.73
2023-01-21T00:46:09.017Z,21.77
2023-01-21T00:48:37.018Z,11.43
2023-01-21T00:51:04.888Z,10.87
2023-01-21T00:53:35.565Z,7.00
2023-01-21T00:56:08.983Z,10.03
2023-01-21T00:58:37.407Z,28.20
2023-01-21T01:01:15.695Z,35.80
2023-01-21T01:03:44.561Z,16.90
2023-01-21T01:06:15.929Z,16.40
2023-01-21T01:08:45.341Z,13.77
2023-01-21T01:11:14.537Z,10.60
2023-01-21T01:13:42.612Z,15.67
2023-01-21T01:16:13.376Z,13.03
2023-01-21T01:18:41.400Z,14.97
2023-01-21T01:21:14.239Z,13.40
2023-01-21T01:23:43.538Z,17.00
2023-01-21T01:26:15.334Z,23.10
2023-01-21T01:28:43.543Z,29.07
2023-01-21T01:31:15.778Z,33.37
2023-01-21T01:33:44.014Z,54.60
2023-01-21T01:36:23.711Z,52.30
2023-01-21T01:38:54.974Z,43.37
2023-01-21T01:41:30.148Z,42.90
2023-01-21T01:44:45.526Z,39.30
2023-01-21T01:47:13.672Z,13.83
2023-01-21T01:49:42.294Z,6.97
2023-01-21T01:52:12.614Z,4.47
2023-01-21T01:54:49.204Z,6.03
2023-01-21T01:57:20.885Z,4.67
2023-01-21T01:59:51.057Z,4.50
2023-01-21T02:02:20.883Z,5.13
2023-01-21T02:04:55.320Z,6.30
2023-01-21T02:07:26.226Z,17.83
2023-01-21T02:09:54.558Z,18.07
2023-01-21T02:12:22.738Z,16.27
2023-01-21T02:14:50.943Z,9.50
2023-01-21T02:17:48.638Z,9.67
2023-01-21T02:20:39.320Z,7.50
2023-01-21T02:23:44.607Z,6.77
2023-01-21T02:26:45.942Z,4.20
2023-01-21T02:29:58.033Z,3.87
2023-01-21T02:32:59.208Z,6.47
2023-01-21T02:35:48.800Z,5.07
2023-01-21T02:38:25.191Z,10.77
2023-01-21T02:41:02.615Z,6.03
2023-01-21T02:43:51.959Z,7.57
2023-01-21T02:46:27.863Z,7.43
2023-01-21T02:49:08.342Z,3.87
2023-01-21T02:51:36.060Z,5.07
2023-01-21T02:54:35.973Z,3.80
2023-01-21T02:57:04.212Z,3.03
2023-01-21T02:59:32.835Z,2.60
2023-01-21T03:02:21.668Z,3.77
2023-01-21T03:05:11.966Z,2.70
2023-01-21T03:08:06.050Z,2.47
2023-01-21T03:10:55.325Z,2.47
2023-01-21T03:14:01.251Z,2.23
2023-01-21T03:17:01.888Z,4.33
2023-01-21T03:19:51.064Z,2.77
2023-01-21T03:22:28.643Z,4.07
2023-01-21T03:24:58.874Z,4.73
2023-01-21T03:27:29.288Z,4.40
2023-01-21T03:30:25.757Z,4.67
2023-01-21T03:32:55.722Z,9.40
2023-01-21T03:35:36.054Z,19.30
2023-01-21T03:38:31.554Z,12.27
2023-01-21T03:41:33.593Z,14.67
2023-01-21T03:44:01.610Z,17.20
2023-01-21T03:46:58.223Z,10.53
2023-01-21T03:49:41.768Z,8.57
2023-01-21T03:52:11.653Z,5.83
2023-01-21T03:54:40.750Z,5.97
2023-01-21T03:57:08.391Z,5.00
2023-01-21T03:59:35.990Z,7.13
2023-01-21T04:02:03.504Z,6.93
2023-01-21T04:04:31.004Z,5.73
2023-01-21T04:06:58.599Z,5.33
2023-01-21T04:09:26.159Z,7.80
2023-01-21T04:11:53.704Z,12.43
2023-01-21T04:14:21.346Z,9.57
2023-01-21T04:16:48.816Z,9.83
2023-01-21T04:19:16.353Z,18.23
2023-01-21T04:21:43.925Z,26.57
2023-01-21T04:24:11.606Z,31.60
2023-01-21T04:26:39.217Z,17.60
2023-01-21T04:29:06.769Z,218.77
2023-01-21T04:31:34.370Z,88.40
2023-01-21T04:34:01.955Z,64.20
2023-01-21T04:36:29.574Z,29.47
2023-01-21T04:38:57.169Z,32.47
2023-01-21T04:41:25.585Z,31.27
2023-01-21T04:43:53.330Z,49.17
2023-01-21T04:46:20.917Z,59.63
2023-01-21T04:48:48.519Z,50.07
2023-01-21T04:51:16.119Z,60.70
2023-01-21T04:53:43.733Z,119.90
2023-01-21T04:56:11.266Z,110.47
2023-01-21T04:58:38.874Z,92.20
2023-01-21T05:01:06.698Z,71.53
2023-01-21T05:03:34.310Z,73.07
2023-01-21T05:06:01.760Z,64.57
2023-01-21T05:08:29.278Z,62.73
2023-01-21T05:10:56.744Z,52.00
2023-01-21T05:13:24.357Z,41.03
2023-01-21T05:15:52.093Z,34.87
2023-01-21T05:18:19.724Z,38.37
2023-01-21T05:20:47.244Z,32.10
2023-01-21T05:23:14.765Z,37.80
2023-01-21T05:25:42.294Z,31.33
2023-01-21T05:28:09.850Z,43.13
2023-01-21T05:30:40.221Z,28.23
2023-01-21T05:33:08.271Z,27.33
2023-01-21T05:35:36.365Z,20.03
2023-01-21T05:38:03.909Z,27.83
2023-01-21T05:40:31.468Z,27.33
2023-01-21T05:42:59.051Z,28.17
2023-01-21T05:45:28.057Z,36.00
2023-01-21T05:47:55.557Z,41.97
2023-01-21T05:50:23.232Z,36.13
2023-01-21T05:52:50.718Z,18.73
2023-01-21T05:55:18.594Z,23.00
2023-01-21T05:57:48.908Z,16.23
2023-01-21T06:00:17.469Z,18.37
2023-01-21T06:02:45.172Z,16.80
2023-01-21T06:05:12.718Z,15.80
2023-01-21T06:07:40.256Z,16.80
2023-01-21T06:10:08.702Z,17.23
2023-01-21T06:12:36.380Z,17.73
2023-01-21T06:15:04.239Z,17.37
2023-01-21T06:17:32.284Z,17.80
2023-01-21T06:20:01.258Z,22.20
2023-01-21T06:22:30.121Z,19.07
2023-01-21T06:24:57.791Z,22.57
2023-01-21T06:27:25.375Z,22.67
2023-01-21T06:29:52.904Z,17.67
2023-01-21T06:32:20.579Z,21.93
2023-01-21T06:34:48.172Z,26.20
2023-01-21T06:37:15.760Z,21.30
2023-01-21T06:39:44.640Z,21.20
2023-01-21T06:42:12.180Z,13.17
2023-01-21T06:44:40.171Z,11.17
2023-01-21T06:47:08.381Z,9.93
2023-01-21T06:49:36.051Z,7.83
2023-01-21T06:52:06.804Z,7.93
2023-01-21T06:54:34.482Z,9.60
2023-01-21T06:57:03.225Z,6.93
2023-01-21T06:59:30.944Z,29.83
2023-01-21T07:01:59.285Z,17.17
2023-01-21T07:04:28.289Z,12.87
2023-01-21T07:06:55.850Z,26.20
2023-01-21T07:09:23.953Z,13.73
2023-01-21T07:11:51.650Z,16.43
2023-01-21T07:14:19.175Z,24.30
2023-01-21T07:16:46.785Z,13.43
2023-01-21T07:19:15.075Z,16.80
2023-01-21T07:21:42.977Z,16.17
2023-01-21T07:24:10.548Z,12.50
2023-01-21T07:26:40.700Z,11.03
2023-01-21T07:29:08.687Z,10.33
2023-01-21T07:31:38.901Z,13.63
2023-01-21T07:34:06.677Z,12.27
2023-01-21T07:36:34.160Z,12.97
2023-01-21T07:39:01.939Z,13.50
2023-01-21T07:41:29.481Z,12.13
2023-01-21T07:43:57.040Z,11.27
2023-01-21T07:46:24.657Z,16.57
2023-01-21T07:48:52.565Z,13.13
2023-01-21T07:51:21.368Z,23.67
2023-01-21T07:53:49.639Z,14.17
2023-01-21T07:56:18.510Z,20.03
2023-01-21T07:58:47.183Z,16.47
2023-01-21T08:01:14.893Z,14.50
2023-01-21T08:03:42.421Z,43.70
2023-01-21T08:06:10.189Z,27.07
2023-01-21T08:08:37.656Z,16.90
2023-01-21T08:11:05.354Z,32.80
2023-01-21T08:13:32.802Z,15.53
2023-01-21T08:16:01.834Z,28.73
2023-01-21T08:18:29.338Z,12.70
2023-01-21T08:20:58.501Z,11.23
2023-01-21T08:23:27.254Z,12.80
2023-01-21T08:25:55.524Z,12.03
2023-01-21T08:28:23.986Z,18.83
2023-01-21T08:30:52.149Z,18.30
2023-01-21T08:33:21.011Z,62.83
2023-01-21T08:35:48.435Z,54.83
2023-01-21T08:38:15.953Z,13.30
2023-01-21T08:40:43.450Z,11.73
2023-01-21T08:43:10.899Z,12.07
2023-01-21T08:45:38.425Z,11.83
2023-01-21T08:48:06.404Z,10.67
2023-01-21T08:50:34.342Z,14.00
2023-01-21T08:53:01.849Z,42.60
2023-01-21T08:55:29.329Z,29.17
2023-01-21T08:57:58.501Z,19.50
2023-01-21T09:00:26.494Z,18.17
2023-01-21T09:02:54.438Z,14.83
2023-01-21T09:05:22.533Z,22.10
2023-01-21T09:07:50.101Z,24.97
2023-01-21T09:10:37.807Z,25.23
2023-01-21T09:13:07.245Z,11.20
2023-01-21T09:15:42.977Z,14.20
2023-01-21T09:18:10.959Z,15.90
2023-01-21T09:20:39.815Z,12.70
2023-01-21T09:23:24.915Z,11.20
2023-01-21T09:25:53.125Z,8.97
2023-01-21T09:28:23.944Z,10.97
2023-01-21T09:31:01.026Z,11.17
2023-01-21T09:33:30.179Z,12.30
2023-01-21T09:36:03.280Z,13.63
2023-01-21T09:38:31.467Z,14.47
2023-01-21T09:41:44.284Z,14.60
2023-01-21T09:44:29.230Z,12.40
2023-01-21T09:47:24.974Z,17.60
2023-01-21T09:50:14.183Z,22.10
2023-01-21T09:52:54.841Z,13.53
2023-01-21T09:55:47.581Z,16.00
2023-01-21T09:58:38.977Z,12.50
2023-01-21T10:01:43.294Z,15.20
2023-01-21T10:04:49.767Z,18.30
2023-01-21T10:07:30.643Z,21.03
2023-01-21T10:10:01.317Z,15.37
2023-01-21T10:12:57.974Z,16.00
2023-01-21T10:15:50.249Z,8.97
2023-01-21T10:18:39.347Z,4.33
2023-01-21T10:21:51.226Z,4.40
2023-01-21T10:24:25.697Z,19.23
2023-01-21T10:26:54.651Z,10.20
2023-01-21T10:29:26.456Z,5.57
2023-01-21T10:32:07.246Z,3.57
2023-01-21T10:34:43.830Z,4.13
2023-01-21T10:37:45.818Z,10.57
2023-01-21T10:40:53.382Z,3.17
2023-01-21T10:43:36.154Z,5.17
2023-01-21T10:46:31.125Z,3.90
2023-01-21T10:49:12.367Z,8.40
2023-01-21T10:52:13.149Z,5.47
2023-01-21T10:55:35.275Z,5.50
2023-01-21T10:58:05.373Z,5.53
2023-01-21T11:00:39.591Z,7.97
2023-01-21T11:03:43.032Z,6.77
2023-01-21T11:06:15.192Z,5.17
2023-01-21T11:08:48.867Z,5.37
2023-01-21T11:11:28.697Z,2.73
2023-01-21T11:13:57.021Z,6.33
2023-01-21T11:16:47.888Z,5.47
2023-01-21T11:19:18.722Z,4.70
2023-01-21T11:22:09.344Z,2.57
2023-01-21T11:24:49.680Z,4.73
2023-01-21T11:27:41.691Z,4.30
2023-01-21T11:30:55.086Z,7.67
2023-01-21T11:33:28.102Z,6.23
2023-01-21T11:35:58.422Z,5.67
2023-01-21T11:38:34.900Z,4.43
2023-01-21T11:41:11.477Z,5.93
2023-01-21T11:43:50.876Z,3.53
2023-01-21T11:46:34.956Z,5.00
2023-01-21T11:49:08.524Z,4.93
2023-01-21T11:51:39.346Z,5.23
2023-01-21T11:54:17.933Z,5.50
2023-01-21T11:57:02.348Z,5.17
2023-01-21T11:59:43.649Z,6.03
2023-01-21T12:02:29.527Z,5.97
2023-01-21T12:05:10.220Z,4.70
2023-01-21T12:07:41.672Z,8.20
2023-01-21T12:10:31.685Z,5.60
2023-01-21T12:13:21.108Z,5.33
2023-01-21T12:16:21.173Z,5.53
2023-01-21T12:19:18.783Z,7.07
2023-01-21T12:22:25.451Z,8.80
2023-01-21T12:25:16.284Z,3.43
2023-01-21T12:28:29.174Z,5.87
2023-01-21T12:31:36.510Z,4.23
2023-01-21T12:34:19.797Z,10.53
2023-01-21T12:36:56.415Z,5.23
2023-01-21T12:39:33.995Z,7.67
2023-01-21T12:42:34.060Z,6.10
2023-01-21T12:45:19.727Z,7.93
2023-01-21T12:48:05.041Z,5.80
2023-01-21T12:50:41.181Z,5.33
2023-01-21T12:53:38.998Z,4.63
2023-01-21T12:56:40.097Z,3.33
2023-01-21T12:59:53.404Z,7.33
2023-01-21T13:02:41.052Z,6.53
2023-01-21T13:05:29.151Z,3.63
2023-01-21T13:08:35.913Z,16.50
2023-01-21T13:11:44.696Z,3.30
2023-01-21T13:14:26.355Z,2.30
2023-01-21T13:17:15.587Z,5.67
2023-01-21T13:19:43.201Z,5.43
2023-01-21T13:22:22.276Z,4.50
2023-01-21T13:25:19.589Z,4.83
2023-01-21T13:28:12.132Z,5.00
2023-01-21T13:31:27.172Z,7.50
2023-01-21T13:34:30.551Z,3.70
2023-01-21T13:37:16.028Z,5.93
2023-01-21T13:40:20.082Z,6.37
2023-01-21T13:43:31.056Z,5.03
2023-01-21T13:46:25.793Z,7.67
2023-01-21T13:49:37.662Z,5.90
2023-01-21T13:52:27.742Z,3.93
2023-01-21T13:55:26.637Z,3.87
2023-01-21T13:58:39.796Z,3.77
2023-01-21T14:01:46.869Z,3.20
2023-01-21T14:04:33.339Z,5.73
2023-01-21T14:07:28.748Z,3.10
2023-01-21T14:10:40.625Z,3.90
2023-01-21T14:13:59.588Z,5.00
2023-01-21T14:16:57.449Z,3.00
2023-01-21T14:19:47.007Z,5.83
2023-01-21T14:22:38.600Z,3.67
2023-01-21T14:28:54.196Z,5.17
2023-01-21T14:31:38.477Z,2.87
2023-01-21T14:34:24.888Z,3.27
2023-01-21T14:37:08.279Z,6.40
2023-01-21T14:40:07.322Z,4.23
2023-01-21T14:42:56.512Z,6.63
2023-01-21T14:45:57.546Z,6.07
2023-01-21T14:48:42.488Z,3.63
2023-01-21T14:51:14.993Z,2.80
2023-01-21T14:54:16.436Z,6.80
2023-01-21T14:57:13.781Z,3.33
2023-01-21T14:59:47.313Z,4.80
2023-01-21T15:02:33.355Z,4.27
2023-01-21T15:05:10.119Z,3.87
2023-01-21T15:07:46.883Z,3.77
2023-01-21T15:10:32.102Z,6.23
2023-01-21T15:13:22.439Z,3.13
2023-01-21T15:16:07.671Z,5.37
2023-01-21T15:18:45.493Z,9.43
2023-01-21T15:21:42.931Z,7.37
2023-01-21T15:24:33.138Z,19.83
2023-01-21T15:27:33.188Z,12.90
2023-01-21T15:30:03.203Z,10.47
2023-01-21T15:32:40.987Z,6.90
2023-01-21T15:35:33.684Z,6.17
2023-01-21T15:38:19.822Z,8.30
2023-01-21T15:41:06.878Z,6.77
2023-01-21T15:43:55.218Z,4.47
2023-01-21T15:47:00.729Z,10.10
2023-01-21T15:49:50.717Z,8.20
2023-01-21T15:52:38.674Z,6.30
2023-01-21T15:55:40.599Z,6.47
2023-01-21T15:58:29.161Z,6.23
2023-01-21T16:01:41.741Z,5.43
2023-01-21T16:04:41.047Z,5.80
2023-01-21T16:07:17.198Z,6.83
2023-01-21T16:10:20.612Z,4.67
2023-01-21T16:12:56.573Z,4.43
2023-01-21T16:15:42.734Z,8.33
2023-01-21T16:18:45.422Z,4.77
2023-01-21T16:21:15.111Z,4.93
2023-01-21T16:24:04.366Z,7.90
2023-01-21T16:26:33.439Z,6.03
2023-01-21T16:29:02.281Z,11.53
2023-01-21T16:31:31.369Z,9.47
2023-01-21T16:34:01.571Z,7.70
2023-01-21T16:36:43.121Z,10.93
2023-01-21T16:39:11.764Z,9.67
2023-01-21T16:41:43.327Z,8.80
2023-01-21T16:44:17.769Z,6.00
2023-01-21T16:46:48.804Z,9.57
2023-01-21T16:49:18.242Z,6.17
2023-01-21T16:52:02.656Z,11.03
2023-01-21T16:54:33.740Z,8.43
2023-01-21T16:57:25.149Z,8.73
2023-01-21T16:59:56.526Z,7.97
2023-01-21T17:02:32.887Z,10.07
2023-01-21T17:05:08.336Z,9.57
2023-01-21T17:07:48.726Z,11.73
2023-01-21T17:10:42.571Z,8.87
2023-01-21T17:13:37.902Z,10.07
2023-01-21T17:16:11.117Z,10.60
2023-01-21T17:18:50.647Z,9.97
2023-01-21T17:21:45.108Z,13.90
2023-01-21T17:24:35.007Z,13.90
2023-01-21T17:27:11.424Z,27.67
2023-01-21T17:29:39.317Z,35.23
2023-01-21T17:32:32.034Z,34.07
2023-01-21T17:35:14.121Z,23.77
2023-01-21T17:38:04.022Z,36.00
2023-01-21T17:40:44.608Z,21.83
2023-01-21T17:43:27.501Z,15.27
2023-01-21T17:45:58.462Z,12.70
2023-01-21T17:48:40.667Z,12.53
2023-01-21T17:51:22.357Z,17.70
2023-01-21T17:54:26.727Z,17.53
2023-01-21T17:56:59.165Z,10.67
2023-01-21T17:59:39.349Z,12.83
2023-01-21T18:02:17.918Z,12.17
2023-01-21T18:04:50.588Z,7.53
2023-01-21T18:07:28.614Z,7.80
2023-01-21T18:10:04.027Z,13.60
2023-01-21T18:12:33.893Z,9.27
2023-01-21T18:15:04.245Z,18.63
2023-01-21T18:17:54.423Z,24.63
2023-01-21T18:20:33.383Z,14.30
2023-01-21T18:23:27.186Z,13.27
2023-01-21T18:25:57.235Z,15.57
2023-01-21T18:28:32.350Z,19.47
2023-01-21T18:31:03.623Z,21.53
2023-01-21T18:33:37.400Z,23.87
2023-01-21T18:36:09.940Z,23.47
2023-01-21T18:38:43.223Z,13.23
2023-01-21T18:41:34.473Z,27.67
2023-01-21T18:44:04.030Z,22.20
2023-01-21T18:46:37.520Z,10.97
2023-01-21T18:49:20.172Z,8.03
2023-01-21T18:51:49.889Z,15.47
2023-01-21T18:54:19.018Z,22.13
2023-01-21T18:56:51.497Z,14.13
2023-01-21T18:59:24.149Z,13.57
2023-01-21T19:01:56.757Z,14.03
2023-01-21T19:04:24.693Z,6.87
2023-01-21T19:06:56.707Z,10.03
2023-01-21T19:09:28.346Z,7.20
2023-01-21T19:11:59.234Z,11.30
2023-01-21T19:14:29.408Z,9.83
2023-01-21T19:17:00.346Z,11.90
2023-01-21T19:19:30.268Z,10.00
2023-01-21T19:22:02.694Z,10.33
2023-01-21T19:24:32.871Z,5.70
2023-01-21T19:27:02.123Z,8.93
2023-01-21T19:29:32.725Z,8.17
2023-01-21T19:32:01.372Z,8.33
2023-01-21T19:34:32.398Z,10.47
2023-01-21T19:37:01.966Z,12.97
2023-01-21T19:39:33.872Z,7.20
2023-01-21T19:42:08.637Z,8.87
2023-01-21T19:44:37.948Z,5.70
2023-01-21T19:47:17.697Z,5.67
2023-01-21T19:49:49.264Z,7.77
2023-01-21T19:52:19.566Z,6.27
2023-01-21T19:55:10.634Z,7.60
2023-01-21T19:58:15.106Z,3.80
2023-01-21T20:00:44.699Z,3.33
2023-01-21T20:03:15.064Z,3.20
2023-01-21T20:05:43.959Z,3.30
2023-01-21T20:08:19.554Z,5.20
2023-01-21T20:10:48.664Z,4.93
2023-01-21T20:13:18.480Z,2.57
2023-01-21T20:16:02.398Z,5.30
2023-01-21T20:18:33.743Z,4.27
2023-01-21T20:21:01.939Z,5.13
2023-01-21T20:23:33.416Z,6.30
2023-01-21T20:26:01.805Z,3.23
2023-01-21T20:28:45.461Z,3.30
2023-01-21T20:31:26.008Z,3.33
2023-01-21T20:33:53.800Z,2.90
2023-01-21T20:36:26.863Z,3.13
2023-01-21T20:38:55.691Z,1.33
2023-01-21T20:41:23.615Z,2.87
2023-01-21T20:43:51.524Z,1.67
2023-01-21T20:46:43.568Z,4.67
2023-01-21T20:49:13.918Z,5.03
2023-01-21T20:51:41.810Z,4.27
2023-01-21T20:54:09.931Z,4.10
2023-01-21T20:56:38.792Z,4.77
2023-01-21T20:59:06.631Z,2.90
2023-01-21T21:01:44.551Z,3.17
2023-01-21T21:04:13.333Z,4.53
2023-01-21T21:06:41.073Z,2.63
2023-01-21T21:09:13.019Z,2.93
2023-01-21T21:11:40.677Z,3.87
2023-01-21T21:14:09.267Z,2.23
2023-01-21T21:16:36.943Z,2.20
2023-01-21T21:19:04.497Z,4.37
2023-01-21T21:21:32.134Z,2.70
2023-01-21T21:23:59.840Z,1.83
2023-01-21T21:26:29.544Z,1.90
2023-01-21T21:28:57.898Z,3.20
2023-01-21T21:31:33.050Z,5.60
2023-01-21T21:34:00.820Z,2.50
2023-01-21T21:36:28.638Z,3.43
2023-01-21T21:38:56.350Z,2.90
2023-01-21T21:41:44.902Z,6.13
2023-01-21T21:44:13.653Z,4.27
2023-01-21T21:47:00.315Z,3.07
2023-01-21T21:49:29.138Z,2.93
2023-01-21T21:52:02.567Z,3.37
2023-01-21T21:54:33.379Z,2.83
2023-01-21T21:57:01.114Z,3.93
2023-01-21T21:59:28.634Z,2.73
2023-01-21T22:01:56.310Z,5.83
2023-01-21T22:04:24.231Z,4.13
2023-01-21T22:06:51.927Z,4.50
2023-01-21T22:09:19.888Z,4.10
2023-01-21T22:11:47.517Z,3.23
2023-01-21T22:14:15.515Z,4.10
2023-01-21T22:16:43.616Z,2.47
2023-01-21T22:19:12.614Z,1.80
2023-01-21T22:21:40.173Z,3.17
2023-01-21T22:24:08.352Z,3.30
2023-01-21T22:26:36.666Z,4.17
2023-01-21T22:29:06.171Z,3.53
2023-01-21T22:31:34.635Z,5.97
2023-01-21T22:34:02.997Z,3.17
2023-01-21T22:36:31.879Z,6.13
2023-01-21T22:39:00.237Z,2.93
2023-01-21T22:41:28.576Z,3.67
2023-01-21T22:43:57.259Z,4.73
2023-01-21T22:46:33.802Z,5.73
2023-01-21T22:49:01.622Z,4.97
2023-01-21T22:51:29.409Z,6.40
2023-01-21T22:53:57.328Z,3.17
2023-01-21T22:56:44.936Z,5.90
2023-01-21T22:59:14.960Z,5.67
2023-01-21T23:01:43.114Z,6.13
2023-01-21T23:04:11.904Z,7.20
2023-01-21T23:06:40.636Z,3.43
2023-01-21T23:09:12.418Z,6.47
2023-01-21T23:11:40.259Z,5.17
2023-01-21T23:14:09.997Z,5.10
2023-01-21T23:16:37.708Z,5.10
2023-01-21T23:19:05.366Z,2.83
2023-01-21T23:21:38.839Z,7.13
2023-01-21T23:24:07.649Z,4.07
2023-01-21T23:26:35.381Z,3.60
2023-01-21T23:29:06.059Z,4.83
2023-01-21T23:31:36.688Z,4.17
2023-01-21T23:34:04.617Z,4.17
2023-01-21T23:36:32.168Z,5.70
2023-01-21T23:39:01.966Z,7.93
2023-01-21T23:41:29.597Z,4.97
2023-01-21T23:44:02.559Z,2.93
2023-01-21T23:46:30.827Z,3.40
2023-01-21T23:48:58.590Z,3.10
2023-01-21T23:51:26.167Z,3.30
2023-01-21T23:53:53.771Z,2.50
2023-01-21T23:56:26.619Z,2.63
2023-01-21T23:58:55.038Z,2.67
